Ainsworth, Iowa
Current Conditions -  °F | °C
As of 12:15 AM on Saturday 29 Nov 2014 (Local Time) from KAWG Reporting Station
Clear Clear  
Wind Chill: 23°   Ceiling: Unl
Heat Index: 30°   Visibility: 9mi
Dew Point: 30°   Wind: 8mph
Humidity: 100%   Direction: 150°SSE
Pressure: 29.71"   Gusts: NA
Location:  41.29°N, 91.55°W
Report Text: KAWG 290615Z AUTO 15007KT 9SM CLR M01/M01 A2971 RMK AO2
Loading
Personal Weather Stations






























Interactive Weather Map New forecast layout! Learn more

10-Day Weather Forecast

Advertisements
Track Severe Weather on mobile